YLD weather

Chapleau Airport
Chapleau, Ontario, Canada

Public forecast

Using degrees Celsius for public forecast. Weather courtesy of forecast.io.

Current aviation weather report (METAR) for Chapleau Airport

Retrieved 2020/05/27 22:00 UTC (26 minutes ago):

CYLD 272200Z 23008G15KT 180V270 15SM FEW066TCU BKN140 27/14 A2991 RMK TCU1AC5 SLP129 DENSITY ALT 3200FT

Aviation forecast (TAF) for Chapleau Airport

Retrieved 2020/05/27 20:00 UTC (2 hours ago):

TAF CYLD 271930Z 2720/2801 23012G22KT P6SM SCT060 BKN160 OVC240 TEMPO 2720/2801 P6SM -SHRA BKN040 OVC060 RMK NXT FCST WILL BE ISSUED AT 281145Z